Time;durP1;ratioP1;P1;durP2;ratioP2;P2;SDS_P1;SDS_P2;PMS_P1;PMS_P2;Temp;Humidity;BMP_temperature;BMP_pressure;BME280_temperature;BME280_humidity;BME280_pressure;Samples;Min_cycle;Max_cycle;Signal;HPM_P1;HPM_P2
2024/04/11 00:00:13;;;;;;;4.80;1.63;;;11.10;99.90;;;;;;5437613;26;20447;-70
2024/04/11 00:02:39;;;;;;;2.07;1.63;;;11.10;99.90;;;;;;5447148;26;20506;-70
2024/04/11 00:05:10;;;;;;;2.63;1.40;;;11.00;99.90;;;;;;5448210;26;20882;-70
2024/04/11 00:07:36;;;;;;;1.60;1.50;;;10.80;99.90;;;;;;5438674;26;20316;-70
2024/04/11 00:10:05;;;;;;;2.40;1.80;;;11.00;99.90;;;;;;5436733;26;20523;-70
2024/04/11 00:12:31;;;;;;;4.03;1.60;;;10.90;99.90;;;;;;5447020;26;20479;-70
2024/04/11 00:15:02;;;;;;;4.73;2.07;;;10.90;99.90;;;;;;5439878;26;20446;-71
2024/04/11 00:17:28;;;;;;;3.10;1.07;;;11.00;99.90;;;;;;5448072;26;20593;-71
2024/04/11 00:19:56;;;;;;;2.47;1.23;;;11.00;99.90;;;;;;5443664;26;20467;-70
2024/04/11 00:22:22;;;;;;;2.30;1.20;;;11.00;99.90;;;;;;5447412;26;20663;-70
2024/04/11 00:24:51;;;;;;;3.37;1.57;;;11.00;99.90;;;;;;5442633;26;20543;-70
2024/04/11 00:27:17;;;;;;;3.00;1.27;;;11.00;99.90;;;;;;5440771;26;20294;-69
2024/04/11 00:29:45;;;;;;;9.10;1.50;;;10.90;99.90;;;;;;5440985;26;20450;-69
2024/04/11 00:32:14;;;;;;;1.80;1.60;;;10.80;99.90;;;;;;5443421;26;20275;-69
2024/04/11 00:34:43;;;;;;;4.63;1.60;;;10.80;99.90;;;;;;5441270;26;20604;-69
2024/04/11 00:37:11;;;;;;;9.87;2.00;;;10.80;99.90;;;;;;5440740;26;20530;-70
2024/04/11 00:39:40;;;;;;;11.20;1.37;;;10.70;99.90;;;;;;5426650;26;20519;-69
2024/04/11 00:42:07;;;;;;;2.60;1.60;;;10.70;99.90;;;;;;5444241;26;21239;-71
2024/04/11 00:44:35;;;;;;;1.60;1.10;;;10.70;99.90;;;;;;5438333;26;20521;-69
2024/04/11 00:47:01;;;;;;;2.27;1.60;;;10.70;99.90;;;;;;5439754;26;20526;-69
2024/04/11 00:49:34;;;;;;;3.13;1.63;;;10.60;99.90;;;;;;5441269;26;20578;-70
2024/04/11 00:52:00;;;;;;;9.03;1.73;;;10.50;99.90;;;;;;5443129;26;20444;-70
2024/04/11 00:54:29;;;;;;;4.23;1.30;;;10.60;99.90;;;;;;5437091;26;21034;-71
2024/04/11 00:56:59;;;;;;;1.90;1.30;;;10.60;99.90;;;;;;5439921;26;20246;-69
2024/04/11 00:59:27;;;;;;;2.67;1.40;;;10.60;99.90;;;;;;5440886;26;20589;-70
2024/04/11 01:01:53;;;;;;;10.70;2.77;;;10.70;99.90;;;;;;5431057;26;20535;-69
2024/04/11 01:04:22;;;;;;;4.20;1.90;;;10.70;99.90;;;;;;5442320;26;20455;-70
2024/04/11 01:07:06;;;;;;;2.07;1.60;;;10.60;99.90;;;;;;5449960;26;20293;-69
2024/04/11 01:09:36;;;;;;;5.23;1.60;;;10.50;99.90;;;;;;5448442;26;20994;-71
2024/04/11 01:12:03;;;;;;;3.20;1.67;;;10.60;99.90;;;;;;5436351;26;20878;-69
2024/04/11 01:14:32;;;;;;;2.40;1.63;;;10.40;99.90;;;;;;5437255;26;20438;-70
2024/04/11 01:16:58;;;;;;;5.97;2.70;;;10.20;99.90;;;;;;5444817;26;20475;-71
2024/04/11 01:19:27;;;;;;;4.83;1.27;;;10.20;99.90;;;;;;5436063;26;20450;-71
2024/04/11 01:21:56;;;;;;;3.77;1.30;;;10.30;99.90;;;;;;5439937;26;20737;-71
2024/04/11 01:24:27;;;;;;;2.47;1.33;;;10.20;99.90;;;;;;5441927;26;20617;-70
2024/04/11 01:26:53;;;;;;;2.17;1.57;;;10.10;99.90;;;;;;5438748;26;20578;-70
2024/04/11 01:29:21;;;;;;;3.03;1.27;;;10.00;99.90;;;;;;5443227;26;20483;-69
2024/04/11 01:31:53;;;;;;;1.83;1.20;;;10.00;99.90;;;;;;5434891;26;20357;-70
2024/04/11 01:34:22;;;;;;;1.63;1.37;;;9.90;99.90;;;;;;5433963;26;20471;-70
2024/04/11 01:36:49;;;;;;;2.60;1.27;;;9.90;99.90;;;;;;5433633;26;21172;-70
2024/04/11 01:39:17;;;;;;;1.50;1.03;;;9.80;99.90;;;;;;5441498;26;20517;-69
2024/04/11 01:41:45;;;;;;;9.40;1.33;;;9.90;99.90;;;;;;5440038;26;20525;-69
2024/04/11 01:44:14;;;;;;;1.30;1.20;;;9.90;99.90;;;;;;5441838;26;21042;-71
2024/04/11 01:46:40;;;;;;;2.23;1.30;;;10.00;99.90;;;;;;5422759;26;20624;-71
2024/04/11 01:49:08;;;;;;;2.90;1.37;;;10.10;99.90;;;;;;5441566;26;20455;-71
2024/04/11 01:51:34;;;;;;;1.93;1.47;;;10.10;99.90;;;;;;5440421;26;20369;-69
2024/04/11 01:54:02;;;;;;;5.13;1.60;;;10.20;99.90;;;;;;5441071;26;20865;-69
2024/04/11 01:56:34;;;;;;;1.90;1.67;;;10.10;99.90;;;;;;5443328;26;20249;-69
2024/04/11 01:59:06;;;;;;;3.37;1.33;;;10.10;99.90;;;;;;5447785;26;21003;-69
2024/04/11 02:01:34;;;;;;;4.87;1.63;;;10.10;99.90;;;;;;5432918;26;21696;-69
2024/04/11 02:04:05;;;;;;;2.40;1.23;;;10.10;99.90;;;;;;5436177;26;20471;-70
2024/04/11 02:06:31;;;;;;;3.60;1.50;;;10.00;99.90;;;;;;5433293;26;20538;-69
2024/04/11 02:09:00;;;;;;;2.57;1.63;;;10.00;99.90;;;;;;5440594;26;20469;-69
2024/04/11 02:11:27;;;;;;;1.87;1.10;;;9.90;99.90;;;;;;5439693;26;20530;-69
2024/04/11 02:13:55;;;;;;;1.60;1.37;;;9.80;99.90;;;;;;5438820;26;20622;-70
2024/04/11 02:16:28;;;;;;;2.83;1.57;;;9.80;99.90;;;;;;5423645;26;20503;-70
2024/04/11 02:18:57;;;;;;;2.63;1.50;;;9.80;99.90;;;;;;5431261;26;20493;-70
2024/04/11 02:21:24;;;;;;;5.10;2.10;;;9.80;99.90;;;;;;5443085;26;20622;-69
2024/04/11 02:23:52;;;;;;;2.37;1.40;;;9.80;99.90;;;;;;5445106;26;20453;-69
2024/04/11 02:26:18;;;;;;;7.03;1.70;;;9.80;99.90;;;;;;5433869;26;20550;-69
2024/04/11 02:28:46;;;;;;;3.20;1.53;;;9.80;99.90;;;;;;5429535;26;20460;-69
2024/04/11 02:31:12;;;;;;;3.23;1.53;;;9.70;99.90;;;;;;5436721;26;20238;-70
2024/04/11 02:33:43;;;;;;;2.00;1.17;;;9.70;99.90;;;;;;5447242;26;20504;-69
2024/04/11 02:36:09;;;;;;;4.10;1.57;;;9.70;99.90;;;;;;5431049;26;20249;-69
2024/04/11 02:38:37;;;;;;;1.87;1.40;;;9.60;99.90;;;;;;5444792;26;20526;-70
2024/04/11 02:41:06;;;;;;;1.77;1.57;;;9.50;99.90;;;;;;5446239;26;20292;-69
2024/04/11 02:43:39;;;;;;;1.30;1.10;;;9.60;99.90;;;;;;5440700;26;20467;-69
2024/04/11 02:46:07;;;;;;;1.90;1.23;;;9.80;99.90;;;;;;5439792;26;20455;-69
2024/04/11 02:48:37;;;;;;;3.43;1.47;;;10.00;99.90;;;;;;5443646;26;20465;-69
2024/04/11 02:51:06;;;;;;;3.03;1.23;;;10.10;99.90;;;;;;5444421;26;20467;-70
2024/04/11 02:53:34;;;;;;;3.83;1.60;;;10.40;99.90;;;;;;5436656;26;20562;-71
2024/04/11 02:56:00;;;;;;;1.50;1.10;;;10.50;99.90;;;;;;5441803;26;20625;-69
2024/04/11 02:58:31;;;;;;;1.93;1.13;;;10.60;99.90;;;;;;5438090;26;20534;-70
2024/04/11 03:01:00;;;;;;;6.40;1.50;;;10.70;99.90;;;;;;5430935;26;20504;-71
2024/04/11 03:03:32;;;;;;;2.37;1.20;;;10.90;99.90;;;;;;5435709;26;20435;-69
2024/04/11 03:06:07;;;;;;;12.93;1.50;;;11.00;99.90;;;;;;5453399;26;20535;-70
2024/04/11 03:08:36;;;;;;;1.30;0.90;;;11.00;99.90;;;;;;5447913;26;20699;-69
2024/04/11 03:11:02;;;;;;;3.47;1.30;;;11.00;99.90;;;;;;5432773;26;21076;-69
2024/04/11 03:13:30;;;;;;;1.50;1.13;;;11.10;99.90;;;;;;5442196;26;20752;-69
2024/04/11 03:15:57;;;;;;;1.93;1.50;;;11.00;99.90;;;;;;5444572;26;20462;-70
2024/04/11 03:18:25;;;;;;;1.23;1.00;;;11.00;99.90;;;;;;5444125;26;20462;-69
2024/04/11 03:20:54;;;;;;;2.80;1.17;;;11.10;99.90;;;;;;5448600;26;20466;-70
2024/04/11 03:23:26;;;;;;;3.53;2.10;;;11.10;99.90;;;;;;5455439;26;20458;-70
2024/04/11 03:25:52;;;;;;;1.50;1.00;;;11.20;99.90;;;;;;5445419;26;20696;-69
2024/04/11 03:28:21;;;;;;;4.17;1.23;;;11.20;99.90;;;;;;5442073;26;20866;-69
2024/04/11 03:30:53;;;;;;;2.13;1.00;;;11.20;99.90;;;;;;5437544;26;20313;-70
2024/04/11 03:33:21;;;;;;;2.17;1.63;;;11.30;99.90;;;;;;5427812;26;20491;-70
2024/04/11 03:35:53;;;;;;;1.70;1.30;;;11.40;99.90;;;;;;5449675;26;20656;-70
2024/04/11 03:38:21;;;;;;;9.13;1.60;;;11.30;99.90;;;;;;5438271;26;20861;-70
2024/04/11 03:40:58;;;;;;;1.97;1.30;;;11.40;99.90;;;;;;5434701;26;20557;-69
2024/04/11 03:43:27;;;;;;;2.30;1.40;;;11.50;99.90;;;;;;5430037;26;20478;-70
2024/04/11 03:45:58;;;;;;;12.33;1.40;;;11.60;99.90;;;;;;5430409;26;20602;-69
2024/04/11 03:48:28;;;;;;;2.50;1.17;;;11.60;99.90;;;;;;5431802;26;20475;-69
2024/04/11 03:50:56;;;;;;;1.77;1.10;;;11.60;99.90;;;;;;5435625;26;20533;-70
2024/04/11 03:53:24;;;;;;;1.43;1.20;;;11.60;99.90;;;;;;5437281;26;20471;-69
2024/04/11 03:55:50;;;;;;;1.10;0.80;;;11.50;99.90;;;;;;5442584;26;20485;-70
2024/04/11 03:58:25;;;;;;;4.17;1.77;;;11.60;99.90;;;;;;5438972;26;21439;-69
2024/04/11 04:00:50;;;;;;;2.50;1.00;;;11.60;99.90;;;;;;5449286;26;20530;-69
2024/04/11 04:03:19;;;;;;;5.37;1.20;;;11.50;99.90;;;;;;5444970;26;20483;-69
2024/04/11 04:05:45;;;;;;;3.70;1.03;;;11.70;99.90;;;;;;5448876;26;20674;-69
2024/04/11 04:08:13;;;;;;;1.40;1.20;;;11.70;99.90;;;;;;5440419;26;20477;-70
2024/04/11 04:10:40;;;;;;;2.07;1.23;;;11.80;99.90;;;;;;5433427;26;20409;-69
2024/04/11 04:13:10;;;;;;;3.23;1.63;;;11.80;99.90;;;;;;5439193;26;21015;-69
2024/04/11 04:15:39;;;;;;;1.97;1.03;;;11.90;99.90;;;;;;5452251;26;21124;-69
2024/04/11 04:18:07;;;;;;;1.20;0.80;;;11.90;99.90;;;;;;5455360;26;21254;-69
2024/04/11 04:20:33;;;;;;;6.23;1.70;;;11.80;99.90;;;;;;5445483;26;20471;-70
2024/04/11 04:23:10;;;;;;;2.00;0.80;;;11.90;99.90;;;;;;5430424;26;20505;-69
2024/04/11 04:25:38;;;;;;;22.97;1.40;;;12.00;99.90;;;;;;5446201;26;20249;-70
2024/04/11 04:28:07;;;;;;;2.03;1.10;;;12.10;99.90;;;;;;5438579;26;20475;-69
2024/04/11 04:30:34;;;;;;;3.57;1.20;;;12.10;99.90;;;;;;5455281;26;20883;-69
2024/04/11 04:33:05;;;;;;;3.30;1.10;;;12.10;99.90;;;;;;5440697;26;20528;-69
2024/04/11 04:35:31;;;;;;;4.30;1.30;;;12.10;99.90;;;;;;5437618;26;20491;-69
2024/04/11 04:38:00;;;;;;;1.30;1.17;;;12.10;99.90;;;;;;5424573;26;21033;-69
2024/04/11 04:40:26;;;;;;;4.90;1.07;;;12.10;99.90;;;;;;5445290;26;20489;-69
2024/04/11 04:42:56;;;;;;;2.43;1.23;;;12.20;99.90;;;;;;5431529;26;20933;-70
2024/04/11 04:45:22;;;;;;;8.10;1.53;;;12.20;99.90;;;;;;5445501;26;20584;-69
2024/04/11 04:47:52;;;;;;;2.17;1.23;;;12.20;99.90;;;;;;5450170;26;20443;-69
2024/04/11 04:50:20;;;;;;;6.03;1.27;;;12.20;99.90;;;;;;5449822;26;20246;-69
2024/04/11 04:52:50;;;;;;;1.50;0.90;;;12.20;99.90;;;;;;5455617;26;20783;-69
2024/04/11 04:55:17;;;;;;;1.40;1.00;;;12.20;99.90;;;;;;5441138;26;20562;-70
2024/04/11 04:57:45;;;;;;;1.50;1.17;;;12.30;99.90;;;;;;5438045;26;20520;-69
2024/04/11 05:00:13;;;;;;;1.10;0.90;;;12.30;99.90;;;;;;5448472;26;21081;-70
2024/04/11 05:02:42;;;;;;;1.80;1.40;;;12.40;99.90;;;;;;5446919;26;20511;-70
2024/04/11 05:05:07;;;;;;;2.37;1.40;;;12.40;99.90;;;;;;5448543;26;20485;-71
2024/04/11 05:07:40;;;;;;;1.97;1.60;;;12.30;99.90;;;;;;5440555;26;20638;-70
2024/04/11 05:10:06;;;;;;;7.50;1.67;;;12.30;99.90;;;;;;5439315;26;20333;-70
2024/04/11 05:12:43;;;;;;;1.57;0.93;;;12.30;99.90;;;;;;5434497;26;21410;-71
2024/04/11 05:15:12;;;;;;;1.80;1.50;;;12.30;99.90;;;;;;5450429;26;20477;-71
2024/04/11 05:17:41;;;;;;;3.57;1.07;;;12.30;99.90;;;;;;5442850;26;20577;-71
2024/04/11 05:20:17;;;;;;;5.93;1.30;;;12.40;99.90;;;;;;5435071;26;20540;-71
2024/04/11 05:22:49;;;;;;;5.43;1.47;;;12.40;99.90;;;;;;5449714;26;20470;-71
2024/04/11 05:25:17;;;;;;;3.23;1.13;;;12.40;99.90;;;;;;5440314;26;20475;-71
2024/04/11 05:27:46;;;;;;;3.40;1.07;;;12.50;99.90;;;;;;5443945;26;20485;-71
2024/04/11 05:30:12;;;;;;;5.03;1.63;;;12.50;99.90;;;;;;5446394;26;20477;-71
2024/04/11 05:32:43;;;;;;;2.47;1.00;;;12.50;99.90;;;;;;5447717;26;20466;-71
2024/04/11 05:35:12;;;;;;;1.30;1.00;;;12.60;99.90;;;;;;5445311;26;20550;-72
2024/04/11 05:37:39;;;;;;;4.20;1.00;;;12.70;99.90;;;;;;5442581;26;20586;-72
2024/04/11 05:40:12;;;;;;;1.20;1.10;;;12.70;99.90;;;;;;5437603;26;21072;-71
2024/04/11 05:42:44;;;;;;;4.70;2.07;;;12.70;99.90;;;;;;5445254;26;20493;-71
2024/04/11 05:45:11;;;;;;;3.30;1.00;;;12.60;99.90;;;;;;5447409;26;20479;-72
2024/04/11 05:47:40;;;;;;;3.10;1.50;;;12.70;99.90;;;;;;5444679;26;20475;-70
2024/04/11 05:50:06;;;;;;;1.80;1.47;;;12.70;99.90;;;;;;5450523;26;20502;-72
2024/04/11 05:52:35;;;;;;;1.73;0.80;;;12.70;99.90;;;;;;5448308;26;20474;-72
2024/04/11 05:55:02;;;;;;;1.80;1.60;;;12.90;99.90;;;;;;5444494;26;20493;-71
2024/04/11 05:57:33;;;;;;;3.30;1.00;;;12.90;99.90;;;;;;5435453;26;20470;-71
2024/04/11 05:59:59;;;;;;;1.47;1.00;;;12.90;99.90;;;;;;5448582;26;20522;-71
2024/04/11 06:02:34;;;;;;;2.80;0.90;;;12.90;99.90;;;;;;5448554;26;20554;-70
2024/04/11 06:05:01;;;;;;;7.13;1.27;;;13.00;99.90;;;;;;5439090;26;20531;-71
2024/04/11 06:07:30;;;;;;;1.47;1.00;;;13.10;99.90;;;;;;5439316;26;20548;-71
2024/04/11 06:09:58;;;;;;;4.33;1.73;;;13.10;99.90;;;;;;5452310;26;21086;-71
2024/04/11 06:12:26;;;;;;;1.60;1.17;;;13.20;99.90;;;;;;5441018;26;20936;-71
2024/04/11 06:14:55;;;;;;;1.57;0.97;;;13.20;99.90;;;;;;5444335;26;21100;-70
2024/04/11 06:17:23;;;;;;;1.83;1.20;;;13.20;99.90;;;;;;5442318;26;20949;-71
2024/04/11 06:19:49;;;;;;;1.83;1.50;;;13.20;99.90;;;;;;5456515;26;20622;-70
2024/04/11 06:22:18;;;;;;;2.87;1.30;;;13.30;99.90;;;;;;5449150;26;20532;-71
2024/04/11 06:24:44;;;;;;;3.20;1.73;;;13.30;99.90;;;;;;5448865;26;20555;-71
2024/04/11 06:27:13;;;;;;;3.60;1.37;;;13.30;99.90;;;;;;5444341;26;20786;-71
2024/04/11 06:29:42;;;;;;;7.53;1.97;;;13.30;99.90;;;;;;5455387;26;20479;-71
2024/04/11 06:32:15;;;;;;;2.87;1.13;;;13.40;99.90;;;;;;5446457;26;20654;-71
2024/04/11 06:34:41;;;;;;;3.87;1.33;;;13.40;99.90;;;;;;5440252;26;20561;-71
2024/04/11 06:37:11;;;;;;;2.27;1.33;;;13.50;99.90;;;;;;5448499;26;20473;-70
2024/04/11 06:39:37;;;;;;;13.33;1.87;;;13.50;99.90;;;;;;5451939;26;20466;-71
2024/04/11 06:42:13;;;;;;;3.80;1.03;;;13.50;99.90;;;;;;5444522;26;20789;-71
2024/04/11 06:44:40;;;;;;;2.90;1.40;;;13.40;99.90;;;;;;5439218;26;20907;-71
2024/04/11 06:47:09;;;;;;;3.00;1.90;;;13.30;99.90;;;;;;5449385;26;20471;-71
2024/04/11 06:49:39;;;;;;;1.23;1.03;;;13.30;99.90;;;;;;5452713;26;20473;-72
2024/04/11 06:52:16;;;;;;;1.70;1.27;;;13.30;99.90;;;;;;5446170;26;21197;-72
2024/04/11 06:54:43;;;;;;;4.13;1.37;;;13.30;99.90;;;;;;5442529;26;20587;-70
2024/04/11 06:57:14;;;;;;;1.93;0.97;;;13.30;99.90;;;;;;5451031;26;20599;-71
2024/04/11 06:59:40;;;;;;;6.90;1.23;;;13.40;99.90;;;;;;5446696;26;20581;-70
2024/04/11 07:02:08;;;;;;;6.53;1.40;;;13.30;99.90;;;;;;5442387;26;20527;-71
2024/04/11 07:04:37;;;;;;;3.57;1.40;;;13.30;99.90;;;;;;5444498;26;20276;-71
2024/04/11 07:07:08;;;;;;;1.27;1.03;;;13.30;99.90;;;;;;5452132;26;20477;-70
2024/04/11 07:09:37;;;;;;;5.90;1.70;;;13.30;99.90;;;;;;5461287;26;20494;-71
2024/04/11 07:12:10;;;;;;;1.57;1.23;;;13.30;99.90;;;;;;5455554;26;20577;-71
2024/04/11 07:14:37;;;;;;;5.90;1.20;;;13.20;99.90;;;;;;5441233;26;20475;-71
2024/04/11 07:17:11;;;;;;;1.80;0.90;;;13.10;99.90;;;;;;5449586;26;20516;-71
2024/04/11 07:19:42;;;;;;;1.50;1.20;;;13.20;99.90;;;;;;5440360;26;20460;-71
2024/04/11 07:22:18;;;;;;;1.40;1.30;;;13.30;99.90;;;;;;5433504;26;20466;-71
2024/04/11 07:24:44;;;;;;;1.87;1.27;;;13.30;99.90;;;;;;5445235;26;20475;-71
2024/04/11 07:27:17;;;;;;;8.00;1.80;;;13.30;99.90;;;;;;5452898;26;20470;-71
2024/04/11 07:29:44;;;;;;;1.67;0.90;;;13.40;99.90;;;;;;5439642;26;20245;-71
2024/04/11 07:32:13;;;;;;;1.40;1.30;;;13.40;99.90;;;;;;5441896;26;20622;-70
2024/04/11 07:34:41;;;;;;;2.13;1.27;;;13.40;99.90;;;;;;5447755;26;20474;-70
2024/04/11 07:37:10;;;;;;;1.60;1.30;;;13.40;99.90;;;;;;5441182;26;20474;-71
2024/04/11 07:39:38;;;;;;;1.63;1.07;;;13.50;99.90;;;;;;5455196;26;20462;-71
2024/04/11 07:44:49;;;;;;;2.90;0.90;;;13.50;99.90;;;;;;5445932;26;20620;-71
2024/04/11 07:47:16;;;;;;;2.07;1.53;;;13.50;99.90;;;;;;5447491;26;20463;-71
2024/04/11 07:49:48;;;;;;;1.20;1.00;;;13.60;99.90;;;;;;5439459;26;20528;-71
2024/04/11 07:52:14;;;;;;;4.80;3.00;;;13.70;99.90;;;;;;5451940;26;20525;-71
2024/04/11 07:54:44;;;;;;;2.50;1.50;;;13.80;99.90;;;;;;5450745;26;20478;-70
2024/04/11 07:57:11;;;;;;;1.23;0.97;;;13.80;99.90;;;;;;5453226;26;20623;-71
2024/04/11 07:59:40;;;;;;;1.80;1.27;;;13.70;99.90;;;;;;5436399;26;20535;-71
2024/04/11 08:02:06;;;;;;;1.80;1.10;;;13.80;99.90;;;;;;5442902;26;20530;-72
2024/04/11 08:04:34;;;;;;;2.10;1.50;;;13.90;99.90;;;;;;5435410;26;20471;-71
2024/04/11 08:07:02;;;;;;;7.27;2.00;;;13.90;99.90;;;;;;5443515;26;20249;-71
2024/04/11 08:09:44;;;;;;;2.63;1.77;;;14.00;99.90;;;;;;5443587;26;20457;-72
2024/04/11 08:12:10;;;;;;;4.27;1.50;;;14.10;99.90;;;;;;5433622;26;20560;-71
2024/04/11 08:14:38;;;;;;;2.10;1.30;;;14.10;99.90;;;;;;5440654;26;21546;-71
2024/04/11 08:17:04;;;;;;;4.93;1.23;;;14.20;99.90;;;;;;5445717;26;21189;-70
2024/04/11 08:19:33;;;;;;;4.73;1.20;;;14.20;99.90;;;;;;5447651;26;20485;-71
2024/04/11 08:21:58;;;;;;;2.33;1.90;;;14.20;99.90;;;;;;5446946;26;20573;-72
2024/04/11 08:24:30;;;;;;;4.40;1.30;;;14.20;99.90;;;;;;5443701;26;20479;-71
2024/04/11 08:26:56;;;;;;;1.80;1.30;;;14.30;99.90;;;;;;5456605;26;20272;-71
2024/04/11 08:29:24;;;;;;;3.10;1.80;;;14.40;99.90;;;;;;5438061;26;20546;-71
2024/04/11 08:31:50;;;;;;;3.43;1.37;;;14.50;99.90;;;;;;5434567;26;20253;-71
2024/04/11 08:34:20;;;;;;;1.40;1.20;;;14.60;99.90;;;;;;5439529;26;20526;-70
2024/04/11 08:36:46;;;;;;;5.70;1.83;;;14.50;99.90;;;;;;5449239;26;20460;-71
2024/04/11 08:39:15;;;;;;;2.80;1.00;;;14.70;99.90;;;;;;5437195;26;20526;-71
2024/04/11 08:41:43;;;;;;;1.57;1.00;;;14.80;99.90;;;;;;5435800;26;20313;-72
2024/04/11 08:44:12;;;;;;;1.73;1.10;;;15.00;99.90;;;;;;5436124;26;21023;-72
2024/04/11 08:46:39;;;;;;;1.10;0.80;;;14.90;99.90;;;;;;5438850;26;21211;-71
2024/04/11 08:49:07;;;;;;;2.30;1.50;;;14.90;99.90;;;;;;5439964;26;22225;-71
2024/04/11 08:51:36;;;;;;;4.53;1.50;;;15.10;99.90;;;;;;5436732;26;20664;-71
2024/04/11 08:54:07;;;;;;;3.23;0.97;;;15.20;99.90;;;;;;5446411;26;20472;-71
2024/04/11 08:56:33;;;;;;;5.47;1.30;;;15.30;99.90;;;;;;5436487;26;20486;-70
2024/04/11 08:59:05;;;;;;;4.33;1.00;;;15.10;99.90;;;;;;5439200;26;20504;-71
2024/04/11 09:01:30;;;;;;;1.33;0.97;;;15.10;99.90;;;;;;5443627;26;20249;-71
2024/04/11 09:03:59;;;;;;;1.40;0.90;;;15.10;99.90;;;;;;5456791;26;20632;-71
2024/04/11 09:06:26;;;;;;;2.10;1.20;;;15.20;99.90;;;;;;5441038;26;20253;-71
2024/04/11 09:08:55;;;;;;;2.60;1.20;;;15.30;99.90;;;;;;5443178;26;20545;-71
2024/04/11 09:11:22;;;;;;;1.73;0.90;;;15.10;99.90;;;;;;5439340;26;21031;-71
2024/04/11 09:13:51;;;;;;;3.67;1.10;;;15.20;99.90;;;;;;5444941;26;22092;-71
2024/04/11 09:16:21;;;;;;;8.27;1.23;;;15.10;99.90;;;;;;5453978;26;20556;-71
2024/04/11 09:18:50;;;;;;;2.03;1.00;;;15.00;99.90;;;;;;5441876;26;21390;-71
2024/04/11 09:21:17;;;;;;;4.10;2.00;;;15.00;99.90;;;;;;5443796;26;20560;-71
2024/04/11 09:23:47;;;;;;;1.53;1.20;;;15.10;99.90;;;;;;5440395;26;21119;-71
2024/04/11 09:26:13;;;;;;;3.87;1.50;;;15.40;99.90;;;;;;5445486;26;20616;-71
2024/04/11 09:28:42;;;;;;;8.93;1.10;;;15.50;99.90;;;;;;5441307;26;21031;-71
2024/04/11 09:31:09;;;;;;;1.30;0.87;;;15.70;99.90;;;;;;5441626;26;20238;-72
2024/04/11 09:33:42;;;;;;;1.30;1.03;;;15.70;99.90;;;;;;5442785;26;20463;-71
2024/04/11 09:36:11;;;;;;;2.10;1.90;;;15.70;99.90;;;;;;5448009;26;20481;-72
2024/04/11 09:38:41;;;;;;;2.93;1.10;;;15.70;99.90;;;;;;5444653;26;20528;-71
2024/04/11 09:41:11;;;;;;;1.30;1.17;;;15.80;99.90;;;;;;5443268;26;20531;-71
2024/04/11 09:43:41;;;;;;;1.30;0.93;;;15.90;99.90;;;;;;5438205;26;20545;-71
2024/04/11 09:46:07;;;;;;;1.93;1.17;;;16.10;99.90;;;;;;5452486;26;20532;-71
2024/04/11 09:48:38;;;;;;;1.47;1.00;;;16.00;99.90;;;;;;5439047;26;20524;-71
2024/04/11 09:51:10;;;;;;;4.97;1.73;;;16.10;99.90;;;;;;5447229;26;20471;-71
2024/04/11 09:53:39;;;;;;;1.30;1.20;;;16.30;99.90;;;;;;5442031;26;26491;-71
2024/04/11 09:56:08;;;;;;;1.87;1.30;;;16.30;99.90;;;;;;5447464;26;20858;-71
2024/04/11 09:58:42;;;;;;;1.50;1.10;;;16.20;99.90;;;;;;5442690;26;21014;-71
2024/04/11 10:01:29;;;;;;;2.27;1.67;;;16.00;99.90;;;;;;5443202;26;20525;-71
2024/04/11 10:04:03;;;;;;;2.20;1.90;;;15.80;99.90;;;;;;5445912;26;20463;-71
2024/04/11 10:06:35;;;;;;;1.40;0.90;;;15.80;99.90;;;;;;5433344;26;20646;-70
2024/04/11 10:09:17;;;;;;;7.33;1.60;;;16.00;99.90;;;;;;5441631;26;20528;-71
2024/04/11 10:11:45;;;;;;;2.50;1.20;;;16.20;99.90;;;;;;5455987;26;20471;-71
2024/04/11 10:14:20;;;;;;;2.20;1.37;;;16.60;99.90;;;;;;5446970;26;20466;-70
2024/04/11 10:16:48;;;;;;;3.70;1.40;;;16.50;99.90;;;;;;5452901;26;20461;-71
2024/04/11 10:19:26;;;;;;;6.00;1.70;;;16.70;99.90;;;;;;5445582;26;20555;-71
2024/04/11 10:22:01;;;;;;;2.30;0.97;;;16.60;99.90;;;;;;5458046;26;20529;-71
2024/04/11 10:24:34;;;;;;;2.23;1.10;;;16.60;99.90;;;;;;5441402;26;20599;-71
2024/04/11 10:27:11;;;;;;;1.17;1.00;;;16.60;99.90;;;;;;5444017;26;21021;-71
2024/04/11 10:29:43;;;;;;;2.37;0.97;;;16.30;99.90;;;;;;5442296;26;20475;-70
2024/04/11 10:32:13;;;;;;;2.13;1.53;;;16.30;99.90;;;;;;5442685;26;20533;-70
2024/04/11 10:34:47;;;;;;;4.73;1.63;;;16.20;99.90;;;;;;5447005;26;21579;-70
2024/04/11 10:37:23;;;;;;;2.03;1.93;;;16.20;99.90;;;;;;5439867;26;21039;-71
2024/04/11 10:39:54;;;;;;;3.63;1.10;;;16.00;99.90;;;;;;5441061;26;20474;-71
2024/04/11 10:42:24;;;;;;;1.43;1.00;;;16.20;99.90;;;;;;5443983;26;21010;-71
2024/04/11 10:44:54;;;;;;;3.70;1.60;;;16.20;99.90;;;;;;5445624;26;20588;-71
2024/04/11 10:47:21;;;;;;;1.23;1.10;;;16.20;99.90;;;;;;5443764;26;20494;-71
2024/04/11 10:49:51;;;;;;;3.20;1.27;;;16.10;99.90;;;;;;5440220;26;20470;-71
2024/04/11 10:52:21;;;;;;;6.10;1.87;;;15.90;99.90;;;;;;5444572;26;20530;-71
2024/04/11 10:54:54;;;;;;;4.10;1.40;;;15.70;99.90;;;;;;5448505;26;21072;-71
2024/04/11 10:57:22;;;;;;;6.13;1.50;;;15.70;99.90;;;;;;5443483;26;20471;-71
2024/04/11 10:59:53;;;;;;;1.60;1.33;;;15.70;99.90;;;;;;5434193;26;20794;-71
2024/04/11 11:02:23;;;;;;;4.03;1.77;;;15.80;99.90;;;;;;5441383;26;20543;-71
2024/04/11 11:04:54;;;;;;;1.60;1.13;;;15.60;99.90;;;;;;5447912;26;20474;-71
2024/04/11 11:07:29;;;;;;;1.23;0.93;;;15.50;99.90;;;;;;5458853;26;20534;-71
2024/04/11 11:09:57;;;;;;;4.33;1.57;;;15.60;99.90;;;;;;5448155;26;20473;-71
2024/04/11 11:12:24;;;;;;;3.13;1.57;;;15.40;99.90;;;;;;5445303;26;20596;-71
2024/04/11 11:14:55;;;;;;;1.50;1.00;;;15.30;99.90;;;;;;5437761;26;20481;-71
2024/04/11 11:17:21;;;;;;;3.10;1.50;;;15.40;99.90;;;;;;5441421;26;20524;-71
2024/04/11 11:19:50;;;;;;;6.57;1.57;;;15.50;99.90;;;;;;5439723;26;20510;-71
2024/04/11 11:22:18;;;;;;;2.30;1.43;;;15.50;99.90;;;;;;5451810;26;20954;-71
2024/04/11 11:24:49;;;;;;;8.27;1.97;;;15.60;99.90;;;;;;5434840;26;20513;-71
2024/04/11 11:27:15;;;;;;;8.60;1.87;;;15.60;99.90;;;;;;5447713;26;20628;-71
2024/04/11 11:29:48;;;;;;;4.40;1.80;;;15.80;99.90;;;;;;5438454;26;21044;-72
2024/04/11 11:32:18;;;;;;;7.50;3.40;;;15.80;99.90;;;;;;5442006;26;20521;-71
2024/04/11 11:34:47;;;;;;;3.67;1.37;;;15.60;99.90;;;;;;5448136;26;20471;-71
2024/04/11 11:37:14;;;;;;;8.43;2.87;;;15.50;99.90;;;;;;5443773;26;20974;-71
2024/04/11 11:39:50;;;;;;;2.03;1.30;;;15.60;99.90;;;;;;5437545;26;20486;-72
2024/04/11 11:42:23;;;;;;;2.53;1.50;;;15.60;99.90;;;;;;5442661;26;20475;-71
2024/04/11 11:45:16;;;;;;;3.30;1.97;;;15.80;99.90;;;;;;5441696;26;20616;-71
2024/04/11 11:47:45;;;;;;;1.90;1.50;;;15.80;99.90;;;;;;5441388;26;20460;-72
2024/04/11 11:50:23;;;;;;;4.23;1.93;;;16.10;99.90;;;;;;5450233;26;20817;-70
2024/04/11 11:52:50;;;;;;;4.23;1.60;;;16.40;99.90;;;;;;5445212;26;20562;-70
2024/04/11 11:55:19;;;;;;;1.30;1.10;;;16.60;99.90;;;;;;5451440;26;20521;-71
2024/04/11 11:57:54;;;;;;;2.60;1.93;;;16.50;99.90;;;;;;5453324;26;20531;-71
2024/04/11 12:00:26;;;;;;;2.53;1.73;;;16.70;99.90;;;;;;5436944;26;20475;-71
2024/04/11 12:02:55;;;;;;;5.90;2.07;;;17.10;99.90;;;;;;5439282;26;20481;-71
2024/04/11 12:05:26;;;;;;;1.17;0.97;;;17.10;99.90;;;;;;5447151;26;20526;-70
2024/04/11 12:07:53;;;;;;;3.77;1.80;;;16.90;99.90;;;;;;5445453;26;20639;-72
2024/04/11 12:10:29;;;;;;;1.60;1.20;;;16.70;99.90;;;;;;5451047;26;20517;-72
2024/04/11 12:13:18;;;;;;;1.97;1.50;;;16.70;99.90;;;;;;5446163;26;20477;-72
2024/04/11 12:15:48;;;;;;;4.83;1.73;;;16.90;99.90;;;;;;5440396;26;20526;-72
2024/04/11 12:18:16;;;;;;;1.70;1.30;;;17.10;99.90;;;;;;5447754;26;21251;-72
2024/04/11 12:20:46;;;;;;;6.93;2.60;;;17.30;99.90;;;;;;5444337;26;20463;-72
2024/04/11 12:23:11;;;;;;;2.40;1.97;;;17.30;99.90;;;;;;5443589;26;20910;-72
2024/04/11 12:25:40;;;;;;;2.70;1.33;;;17.40;99.90;;;;;;5447546;26;20578;-72
2024/04/11 12:28:11;;;;;;;1.90;1.70;;;17.20;99.90;;;;;;5443111;26;20348;-71
2024/04/11 12:30:40;;;;;;;3.93;2.87;;;16.80;99.90;;;;;;5435354;26;20520;-72
2024/04/11 12:33:08;;;;;;;2.80;2.47;;;16.70;99.90;;;;;;5441467;26;20708;-71
2024/04/11 12:35:45;;;;;;;7.60;1.63;;;16.60;99.90;;;;;;5443966;26;20529;-72
2024/04/11 12:38:14;;;;;;;6.23;1.67;;;16.60;99.90;;;;;;5446863;26;20478;-72
2024/04/11 12:40:48;;;;;;;3.33;2.80;;;16.70;99.90;;;;;;5441377;26;20610;-71
2024/04/11 12:43:17;;;;;;;5.43;1.67;;;16.80;99.90;;;;;;5434133;26;20486;-71
2024/04/11 12:45:52;;;;;;;3.03;1.77;;;16.90;99.90;;;;;;5445222;26;20581;-71
2024/04/11 12:48:20;;;;;;;1.20;0.80;;;16.90;99.90;;;;;;5451138;26;20525;-71
2024/04/11 12:50:50;;;;;;;7.83;1.60;;;16.80;99.90;;;;;;5443202;26;20545;-71
2024/04/11 12:53:21;;;;;;;1.40;1.20;;;16.90;99.90;;;;;;5446025;26;20831;-71
2024/04/11 12:55:52;;;;;;;1.30;1.10;;;17.30;99.90;;;;;;5447643;26;21117;-71
2024/04/11 12:58:23;;;;;;;5.80;3.43;;;17.40;99.90;;;;;;5438965;26;20537;-71
2024/04/11 13:00:57;;;;;;;2.40;1.90;;;17.60;99.90;;;;;;5442644;26;20632;-71